createdAt,value
2018-12-03T00:01:14.163Z,78.73
2018-12-03T00:03:46.028Z,78.67
2018-12-03T00:06:18.315Z,92.87
2018-12-03T00:08:50.371Z,83.13
2018-12-03T00:11:22.411Z,85.50
2018-12-03T00:13:54.094Z,83.50
2018-12-03T00:16:26.092Z,94.30
2018-12-03T00:18:58.843Z,102.03
2018-12-03T00:21:30.531Z,88.93
2018-12-03T00:24:02.714Z,80.90
2018-12-03T00:26:36.502Z,79.10
2018-12-03T00:29:09.623Z,98.23
2018-12-03T00:31:41.573Z,90.40
2018-12-03T00:34:13.423Z,92.40
2018-12-03T00:36:45.545Z,86.60
2018-12-03T00:39:17.449Z,87.70
2018-12-03T00:41:48.670Z,89.97
2018-12-03T00:44:20.487Z,83.13
2018-12-03T00:46:52.063Z,88.87
2018-12-03T00:49:24.007Z,86.90
2018-12-03T00:51:56.018Z,85.57
2018-12-03T00:54:27.688Z,86.63
2018-12-03T00:56:59.246Z,81.80
2018-12-03T00:59:30.836Z,78.83
2018-12-03T01:02:02.368Z,77.37
2018-12-03T01:04:35.922Z,72.70
2018-12-03T01:07:09.027Z,75.23
2018-12-03T01:09:40.588Z,71.57
2018-12-03T01:12:12.414Z,72.37
2018-12-03T01:14:44.206Z,68.13
2018-12-03T01:17:16.024Z,69.43
2018-12-03T01:19:47.697Z,68.77
2018-12-03T01:22:18.972Z,71.40
2018-12-03T01:24:50.714Z,70.77
2018-12-03T01:27:22.160Z,65.90
2018-12-03T01:29:53.833Z,68.50
2018-12-03T01:32:25.753Z,65.87
2018-12-03T01:34:57.959Z,66.63
2018-12-03T01:37:29.682Z,64.93
2018-12-03T01:40:01.324Z,67.57
2018-12-03T01:42:33.269Z,61.23
2018-12-03T01:45:05.282Z,67.67
2018-12-03T01:47:38.202Z,66.60
2018-12-03T01:50:17.113Z,65.87
2018-12-03T01:52:48.859Z,68.10
2018-12-03T01:55:20.938Z,64.77
2018-12-03T01:57:52.681Z,60.37
2018-12-03T02:00:24.850Z,64.77
2018-12-03T02:02:56.100Z,64.20
2018-12-03T02:05:27.418Z,65.40
2018-12-03T02:08:00.381Z,63.03
2018-12-03T02:10:32.537Z,62.30
2018-12-03T02:13:04.251Z,61.20
2018-12-03T02:15:36.159Z,68.27
2018-12-03T02:18:08.313Z,61.43
2018-12-03T02:20:40.302Z,62.53
2018-12-03T02:23:13.263Z,66.40
2018-12-03T02:25:45.482Z,62.30
2018-12-03T02:28:17.376Z,64.00
2018-12-03T02:30:49.548Z,62.90
2018-12-03T02:33:20.758Z,59.43
2018-12-03T02:35:52.769Z,55.87
2018-12-03T02:38:24.932Z,54.80
2018-12-03T02:40:56.260Z,58.90
2018-12-03T02:43:28.269Z,55.33
2018-12-03T02:46:00.030Z,58.77
2018-12-03T02:48:31.219Z,58.20
2018-12-03T02:51:03.163Z,60.73
2018-12-03T02:53:34.440Z,66.77
2018-12-03T02:56:06.320Z,61.10
2018-12-03T02:58:37.564Z,58.53
2018-12-03T03:01:09.244Z,56.23
2018-12-03T03:03:41.245Z,61.90
2018-12-03T03:06:12.971Z,58.97
2018-12-03T03:08:44.862Z,58.40
2018-12-03T03:11:16.328Z,56.83
2018-12-03T03:13:47.667Z,54.00
2018-12-03T03:16:19.388Z,54.33
2018-12-03T03:18:51.840Z,56.07
2018-12-03T03:21:23.211Z,55.07
2018-12-03T03:23:55.278Z,49.93
2018-12-03T03:26:27.350Z,56.90
2018-12-03T03:28:59.025Z,56.93
2018-12-03T03:31:30.897Z,52.80
2018-12-03T03:34:02.526Z,53.47
2018-12-03T03:36:34.273Z,54.13
2018-12-03T03:39:08.806Z,53.70
2018-12-03T03:41:40.371Z,50.30
2018-12-03T03:44:12.057Z,53.67
2018-12-03T03:46:43.687Z,49.20
2018-12-03T03:49:15.651Z,51.00
2018-12-03T03:51:47.449Z,48.97
2018-12-03T03:54:25.099Z,51.43
2018-12-03T03:56:52.594Z,48.83
2018-12-03T03:59:24.844Z,45.47
2018-12-03T04:01:56.531Z,47.80
2018-12-03T04:04:27.919Z,54.17
2018-12-03T04:06:59.720Z,54.97
2018-12-03T04:09:31.813Z,50.97
2018-12-03T04:12:03.925Z,54.20
2018-12-03T04:14:35.939Z,51.03
2018-12-03T04:17:07.745Z,49.90
2018-12-03T04:19:39.839Z,49.60
2018-12-03T04:22:11.412Z,48.40
2018-12-03T04:24:43.526Z,46.33
2018-12-03T04:27:15.564Z,47.87
2018-12-03T04:29:47.314Z,54.03
2018-12-03T04:32:19.035Z,47.83
2018-12-03T04:34:50.913Z,50.13
2018-12-03T04:37:22.843Z,45.97
2018-12-03T04:39:54.694Z,44.17
2018-12-03T04:42:29.539Z,46.63
2018-12-03T04:45:01.634Z,47.40
2018-12-03T04:47:33.640Z,54.80
2018-12-03T04:50:06.564Z,49.77
2018-12-03T04:52:38.772Z,50.43
2018-12-03T04:55:10.628Z,50.40
2018-12-03T04:57:42.727Z,49.97
2018-12-03T05:00:16.046Z,48.50
2018-12-03T05:02:48.463Z,50.27
2018-12-03T05:05:20.409Z,51.07
2018-12-03T05:07:52.077Z,50.13
2018-12-03T05:10:24.544Z,50.17
2018-12-03T05:12:56.837Z,57.53
2018-12-03T05:15:28.889Z,55.80
2018-12-03T05:18:01.135Z,62.87
2018-12-03T05:20:32.824Z,67.70
2018-12-03T05:23:04.690Z,60.47
2018-12-03T05:25:36.667Z,59.30
2018-12-03T05:28:08.579Z,54.90
2018-12-03T05:30:40.410Z,58.60
2018-12-03T05:33:12.197Z,60.00
2018-12-03T05:35:44.604Z,53.20
2018-12-03T05:38:16.579Z,48.77
2018-12-03T05:40:48.554Z,58.73
2018-12-03T05:43:20.313Z,68.23
2018-12-03T05:45:52.478Z,72.73
2018-12-03T05:48:24.004Z,58.20
2018-12-03T05:50:56.500Z,56.97
2018-12-03T05:53:29.859Z,57.57
2018-12-03T05:56:02.332Z,55.67
2018-12-03T05:58:34.470Z,58.83
2018-12-03T06:01:08.145Z,55.27
2018-12-03T06:03:41.273Z,52.87
2018-12-03T06:06:13.707Z,55.17
2018-12-03T06:08:46.205Z,64.90
2018-12-03T06:11:19.109Z,61.00
2018-12-03T06:13:51.027Z,70.23
2018-12-03T06:16:23.217Z,62.80
2018-12-03T06:18:55.245Z,60.47
2018-12-03T06:21:27.119Z,62.53
2018-12-03T06:23:59.526Z,53.27
2018-12-03T06:26:31.596Z,49.07
2018-12-03T06:29:03.776Z,49.00
2018-12-03T06:31:35.691Z,54.40
2018-12-03T06:34:10.540Z,53.93
2018-12-03T06:36:42.291Z,54.60
2018-12-03T06:39:13.893Z,53.93
2018-12-03T06:41:45.945Z,54.40
2018-12-03T06:44:17.834Z,59.23
2018-12-03T06:46:50.174Z,57.73
2018-12-03T06:49:23.516Z,52.70
2018-12-03T06:51:55.564Z,58.93
2018-12-03T06:54:27.216Z,55.80
2018-12-03T06:56:58.952Z,58.63
2018-12-03T06:59:30.887Z,60.63
2018-12-03T07:02:02.590Z,62.30
2018-12-03T07:04:34.543Z,54.50
2018-12-03T07:07:07.081Z,59.10
2018-12-03T07:09:38.218Z,60.20
2018-12-03T07:12:10.029Z,62.73
2018-12-03T07:14:42.100Z,58.67
2018-12-03T07:17:13.981Z,65.87
2018-12-03T07:19:45.964Z,63.03
2018-12-03T07:22:18.321Z,67.13
2018-12-03T07:24:50.672Z,62.03
2018-12-03T07:27:22.860Z,59.67
2018-12-03T07:29:55.133Z,60.50
2018-12-03T07:32:26.883Z,66.97
2018-12-03T07:34:58.715Z,68.90
2018-12-03T07:37:30.776Z,65.90
2018-12-03T07:40:02.746Z,69.23
2018-12-03T07:42:34.806Z,65.90
2018-12-03T07:45:13.341Z,66.53
2018-12-03T07:47:45.761Z,63.73
2018-12-03T07:50:24.571Z,60.77
2018-12-03T07:52:56.329Z,61.13
2018-12-03T07:55:28.871Z,65.07
2018-12-03T07:58:02.438Z,65.80
2018-12-03T08:00:39.536Z,69.47
2018-12-03T08:03:11.769Z,63.33
2018-12-03T08:05:44.098Z,60.03
2018-12-03T08:08:16.365Z,63.80
2018-12-03T08:10:50.830Z,63.90
2018-12-03T08:13:23.184Z,63.83
2018-12-03T08:15:55.239Z,62.03
2018-12-03T08:18:27.344Z,64.70
2018-12-03T08:21:04.784Z,64.70
2018-12-03T08:23:41.970Z,66.07
2018-12-03T08:26:13.990Z,65.47
2018-12-03T08:28:46.193Z,66.93
2018-12-03T08:31:17.744Z,63.73
2018-12-03T08:33:49.465Z,64.00
2018-12-03T08:36:21.547Z,65.77
2018-12-03T08:38:54.080Z,66.27
2018-12-03T08:41:26.004Z,69.37
2018-12-03T08:43:58.185Z,70.53
2018-12-03T08:46:30.592Z,70.37
2018-12-03T08:49:02.530Z,72.87
2018-12-03T08:51:35.005Z,75.30
2018-12-03T08:54:07.611Z,75.47
2018-12-03T08:56:43.326Z,75.63
2018-12-03T08:59:15.368Z,78.20
2018-12-03T09:01:47.875Z,81.33
2018-12-03T09:04:21.638Z,80.13
2018-12-03T09:06:53.335Z,85.43
2018-12-03T09:09:24.971Z,89.10
2018-12-03T09:11:57.418Z,99.70
2018-12-03T09:14:33.950Z,96.30
2018-12-03T09:17:05.844Z,93.40
2018-12-03T09:19:39.213Z,90.60
2018-12-03T09:22:11.831Z,95.03
2018-12-03T09:24:44.175Z,101.37
2018-12-03T09:27:18.844Z,95.17
2018-12-03T09:29:51.092Z,104.77
2018-12-03T09:32:23.236Z,129.63
2018-12-03T09:34:54.546Z,107.17
2018-12-03T09:37:29.181Z,116.37
2018-12-03T09:40:01.951Z,115.33
2018-12-03T09:42:37.318Z,123.03
2018-12-03T09:45:33.904Z,120.80
2018-12-03T09:48:06.001Z,133.30
2018-12-03T09:50:38.100Z,129.37
2018-12-03T09:53:09.831Z,121.43
2018-12-03T09:55:41.808Z,115.70
2018-12-03T09:58:24.642Z,112.30
2018-12-03T10:00:56.425Z,100.30
2018-12-03T10:03:30.989Z,94.17
2018-12-03T10:06:10.221Z,93.47
2018-12-03T10:08:42.251Z,97.23
2018-12-03T10:11:13.928Z,99.73
2018-12-03T10:13:45.509Z,96.87
2018-12-03T10:16:17.471Z,100.47
2018-12-03T10:18:52.702Z,98.80
2018-12-03T10:21:24.594Z,97.10
2018-12-03T10:23:56.317Z,103.70
2018-12-03T10:26:28.354Z,106.63
2018-12-03T10:28:59.998Z,99.03
2018-12-03T10:31:32.113Z,101.47
2018-12-03T10:34:09.657Z,91.37
2018-12-03T10:36:42.012Z,95.30
2018-12-03T10:39:16.441Z,88.83
2018-12-03T10:41:48.387Z,90.70
2018-12-03T10:44:22.334Z,93.13
2018-12-03T10:46:54.503Z,86.17
2018-12-03T10:49:26.595Z,98.27
2018-12-03T10:51:58.844Z,93.77
2018-12-03T10:54:39.174Z,92.83
2018-12-03T10:57:11.782Z,97.17
2018-12-03T10:59:53.205Z,99.33
2018-12-03T11:02:52.330Z,98.97
2018-12-03T11:05:43.975Z,94.10
2018-12-03T11:08:22.143Z,100.23
2018-12-03T11:10:55.183Z,95.30
2018-12-03T11:13:26.979Z,98.53
2018-12-03T11:15:58.885Z,94.53
2018-12-03T11:18:31.694Z,92.43
2018-12-03T11:21:06.598Z,99.33
2018-12-03T11:23:38.735Z,95.80
2018-12-03T11:26:11.047Z,92.87
2018-12-03T11:28:54.080Z,100.10
2018-12-03T11:31:30.791Z,94.37
2018-12-03T11:34:02.866Z,88.47
2018-12-03T11:36:43.648Z,89.87
2018-12-03T11:39:56.512Z,85.27
2018-12-03T11:42:36.948Z,67.57
2018-12-03T11:45:11.110Z,72.37
2018-12-03T11:47:42.866Z,77.90
2018-12-03T11:50:15.301Z,82.93
2018-12-03T11:52:47.364Z,86.53
2018-12-03T11:55:19.007Z,85.00
2018-12-03T11:57:51.083Z,88.10
2018-12-03T12:00:22.768Z,86.57
2018-12-03T12:02:54.552Z,82.03
2018-12-03T12:05:26.525Z,91.70
2018-12-03T12:07:58.767Z,74.43
2018-12-03T12:10:30.831Z,68.33
2018-12-03T12:13:02.828Z,71.33
2018-12-03T12:15:34.815Z,69.97
2018-12-03T12:18:06.986Z,65.27
2018-12-03T12:20:39.452Z,69.20
2018-12-03T12:23:11.742Z,67.70
2018-12-03T12:25:43.575Z,67.33
2018-12-03T12:28:15.973Z,65.03
2018-12-03T12:30:48.154Z,75.13
2018-12-03T12:33:20.139Z,81.03
2018-12-03T12:35:52.790Z,80.27
2018-12-03T12:38:25.020Z,74.67
2018-12-03T12:40:56.898Z,75.27
2018-12-03T12:43:29.004Z,74.37
2018-12-03T12:46:08.917Z,69.37
2018-12-03T12:48:40.590Z,68.00
2018-12-03T12:51:11.934Z,67.20
2018-12-03T12:53:43.986Z,63.60
2018-12-03T12:56:16.202Z,61.53
2018-12-03T12:58:47.988Z,61.40
2018-12-03T13:01:20.116Z,61.07
2018-12-03T13:03:52.010Z,64.90
2018-12-03T13:06:23.558Z,62.30
2018-12-03T13:08:55.720Z,70.87
2018-12-03T13:11:27.676Z,64.70
2018-12-03T13:13:59.377Z,70.20
2018-12-03T13:16:31.697Z,66.67
2018-12-03T13:19:04.229Z,72.47
2018-12-03T13:21:37.625Z,73.53
2018-12-03T13:24:10.346Z,73.07
2018-12-03T13:26:46.318Z,69.90
2018-12-03T13:29:20.063Z,74.20
2018-12-03T13:31:53.168Z,76.07
2018-12-03T13:34:26.140Z,83.20
2018-12-03T13:37:00.721Z,75.57
2018-12-03T13:39:35.890Z,73.37
2018-12-03T13:42:10.891Z,76.57
2018-12-03T13:44:45.581Z,71.90
2018-12-03T13:47:19.673Z,72.97
2018-12-03T13:49:53.384Z,68.30
2018-12-03T13:52:25.602Z,75.87
2018-12-03T13:54:59.134Z,70.73
2018-12-03T13:57:33.452Z,76.90
2018-12-03T14:00:08.100Z,69.93
2018-12-03T14:02:42.045Z,66.90
2018-12-03T14:05:19.605Z,70.50
2018-12-03T14:08:11.272Z,68.10
2018-12-03T14:11:20.708Z,67.83
2018-12-03T14:14:33.869Z,72.10
2018-12-03T14:17:12.281Z,72.43
2018-12-03T14:19:48.411Z,73.07
2018-12-03T14:22:36.055Z,68.63
2018-12-03T14:25:09.103Z,66.87
2018-12-03T14:27:42.049Z,72.27
2018-12-03T14:30:15.836Z,70.87
2018-12-03T14:32:48.001Z,73.17
2018-12-03T14:35:20.494Z,69.90
2018-12-03T14:37:53.124Z,70.30
2018-12-03T14:40:26.031Z,69.43
2018-12-03T14:42:58.896Z,70.70
2018-12-03T14:45:31.116Z,71.13
2018-12-03T14:48:04.070Z,71.03
2018-12-03T14:50:36.607Z,65.50
2018-12-03T14:53:08.935Z,74.97
2018-12-03T14:55:41.733Z,75.77
2018-12-03T14:58:14.375Z,72.43
2018-12-03T15:00:46.856Z,79.33
2018-12-03T15:03:18.801Z,70.10
2018-12-03T15:05:51.938Z,75.63
2018-12-03T15:08:23.422Z,72.60
2018-12-03T15:10:55.723Z,72.33
2018-12-03T15:13:30.047Z,71.97
2018-12-03T15:16:02.250Z,70.40
2018-12-03T15:18:35.158Z,77.60
2018-12-03T15:21:07.842Z,73.23
2018-12-03T15:23:42.099Z,80.73
2018-12-03T15:26:13.522Z,75.30
2018-12-03T15:28:45.552Z,74.37
2018-12-03T15:31:18.149Z,77.73
2018-12-03T15:33:50.454Z,69.43
2018-12-03T15:36:21.915Z,78.37
2018-12-03T15:38:54.302Z,81.43
2018-12-03T15:41:26.616Z,79.63
2018-12-03T15:43:58.716Z,80.13
2018-12-03T15:46:31.225Z,70.03
2018-12-03T15:49:03.438Z,77.17
2018-12-03T15:51:35.548Z,78.13
2018-12-03T15:54:07.814Z,77.90
2018-12-03T15:56:40.826Z,79.63
2018-12-03T15:59:13.371Z,84.83
2018-12-03T16:01:45.798Z,76.67
2018-12-03T16:04:18.181Z,81.90
2018-12-03T16:06:50.269Z,85.60
2018-12-03T16:09:22.271Z,73.73
2018-12-03T16:11:54.606Z,85.17
2018-12-03T16:14:27.125Z,77.30
2018-12-03T16:16:59.278Z,81.57
2018-12-03T16:19:31.668Z,77.33
2018-12-03T16:22:03.870Z,81.23
2018-12-03T16:24:35.725Z,75.50
2018-12-03T16:27:07.833Z,72.43
2018-12-03T16:29:40.494Z,75.17
2018-12-03T16:32:12.973Z,69.67
2018-12-03T16:34:45.218Z,73.13
2018-12-03T16:37:17.518Z,68.60
2018-12-03T16:39:49.857Z,76.97
2018-12-03T16:42:21.655Z,71.17
2018-12-03T16:44:53.918Z,81.63
2018-12-03T16:47:26.045Z,76.87
2018-12-03T16:49:57.536Z,84.83
2018-12-03T16:52:29.679Z,85.13
2018-12-03T16:55:01.852Z,85.30
2018-12-03T16:57:33.983Z,92.03
2018-12-03T17:00:10.305Z,88.63
2018-12-03T17:02:42.511Z,81.97
2018-12-03T17:05:14.655Z,84.17
2018-12-03T17:07:46.898Z,90.07
2018-12-03T17:10:20.386Z,77.07
2018-12-03T17:12:54.173Z,84.80
2018-12-03T17:15:26.519Z,86.93
2018-12-03T17:17:58.632Z,91.40
2018-12-03T17:20:41.881Z,77.03
2018-12-03T17:23:39.883Z,78.33
2018-12-03T17:26:12.276Z,84.13
2018-12-03T17:28:44.518Z,85.37
2018-12-03T17:31:17.053Z,95.67
2018-12-03T17:33:49.292Z,84.90
2018-12-03T17:36:21.115Z,79.07
2018-12-03T17:38:53.451Z,81.33
2018-12-03T17:41:25.596Z,88.30
2018-12-03T17:43:59.369Z,82.17
2018-12-03T17:46:33.206Z,91.90
2018-12-03T17:49:05.687Z,91.77
2018-12-03T17:51:38.017Z,98.60
2018-12-03T17:54:10.232Z,94.07
2018-12-03T17:56:43.171Z,90.00
2018-12-03T17:59:15.552Z,89.67
2018-12-03T18:01:48.047Z,92.67
2018-12-03T18:04:20.503Z,99.50
2018-12-03T18:06:52.882Z,95.97
2018-12-03T18:09:24.814Z,104.27
2018-12-03T18:11:57.175Z,101.70
2018-12-03T18:14:29.750Z,104.87
2018-12-03T18:17:02.075Z,102.83
2018-12-03T18:19:34.274Z,109.67
2018-12-03T18:22:06.803Z,122.00
2018-12-03T18:24:38.698Z,111.33
2018-12-03T18:27:10.944Z,108.10
2018-12-03T18:29:43.277Z,105.93
2018-12-03T18:32:16.453Z,105.60
2018-12-03T18:34:49.942Z,103.37
2018-12-03T18:37:22.494Z,101.83
2018-12-03T18:39:54.901Z,99.83
2018-12-03T18:42:26.947Z,108.07
2018-12-03T18:44:59.102Z,112.30
2018-12-03T18:47:31.015Z,115.43
2018-12-03T18:50:05.928Z,112.77
2018-12-03T18:52:38.196Z,108.07
2018-12-03T18:55:09.716Z,118.57
2018-12-03T18:57:41.670Z,119.43
2018-12-03T19:00:17.516Z,113.30
2018-12-03T19:02:49.160Z,119.53
2018-12-03T19:05:21.083Z,101.13
2018-12-03T19:07:53.266Z,106.60
2018-12-03T19:10:25.092Z,97.00
2018-12-03T19:12:57.305Z,111.87
2018-12-03T19:15:29.516Z,103.53
2018-12-03T19:18:02.040Z,104.70
2018-12-03T19:20:34.570Z,106.87
2018-12-03T19:23:06.755Z,109.07
2018-12-03T19:25:39.193Z,109.77
2018-12-03T19:28:11.408Z,124.13
2018-12-03T19:30:43.898Z,111.73
2018-12-03T19:33:16.752Z,104.07
2018-12-03T19:35:49.381Z,110.77
2018-12-03T19:38:21.482Z,111.27
2018-12-03T19:40:53.229Z,116.37
2018-12-03T19:43:25.789Z,123.63
2018-12-03T19:45:58.876Z,125.30
2018-12-03T19:48:30.730Z,119.30
2018-12-03T19:51:03.547Z,122.10
2018-12-03T19:53:36.109Z,124.37
2018-12-03T19:56:08.347Z,120.07
2018-12-03T19:58:46.229Z,112.37
2018-12-03T20:01:18.601Z,115.97
2018-12-03T20:03:50.910Z,119.20
2018-12-03T20:06:22.477Z,115.33
2018-12-03T20:08:54.638Z,116.37
2018-12-03T20:11:26.797Z,111.07
2018-12-03T20:13:58.961Z,110.33
2018-12-03T20:16:32.984Z,111.93
2018-12-03T20:19:05.352Z,116.07
2018-12-03T20:21:37.654Z,122.47
2018-12-03T20:24:13.300Z,122.30
2018-12-03T20:26:56.181Z,125.50
2018-12-03T20:29:58.880Z,124.47
2018-12-03T20:33:01.102Z,118.60
2018-12-03T20:36:16.400Z,121.47
2018-12-03T20:39:32.485Z,117.63
2018-12-03T20:42:06.332Z,112.40
2018-12-03T20:44:52.289Z,111.97
2018-12-03T20:47:28.299Z,111.83
2018-12-03T20:50:23.316Z,121.90
2018-12-03T20:52:54.720Z,120.97
2018-12-03T20:55:50.350Z,110.10
2018-12-03T20:58:21.894Z,111.20
2018-12-03T21:00:54.317Z,114.97
2018-12-03T21:03:26.169Z,123.67
2018-12-03T21:05:58.809Z,116.57
2018-12-03T21:08:30.743Z,116.77
2018-12-03T21:11:02.908Z,120.43
2018-12-03T21:13:36.111Z,120.03
2018-12-03T21:16:08.318Z,113.53
2018-12-03T21:18:40.462Z,110.50
2018-12-03T21:21:14.024Z,120.90
2018-12-03T21:23:46.292Z,117.60
2018-12-03T21:26:18.428Z,120.70
2018-12-03T21:28:51.067Z,127.47
2018-12-03T21:31:22.880Z,114.50
2018-12-03T21:33:54.901Z,132.23
2018-12-03T21:36:26.583Z,144.03
2018-12-03T21:38:58.662Z,138.50
2018-12-03T21:41:30.473Z,142.13
2018-12-03T21:44:02.642Z,138.97
2018-12-03T21:46:34.426Z,128.63
2018-12-03T21:49:06.369Z,132.73
2018-12-03T21:51:38.194Z,129.43
2018-12-03T21:54:10.291Z,125.27
2018-12-03T21:56:42.134Z,124.87
2018-12-03T21:59:14.141Z,120.90
2018-12-03T22:01:45.851Z,122.00
2018-12-03T22:04:17.651Z,121.30
2018-12-03T22:06:49.831Z,116.07
2018-12-03T22:09:21.545Z,121.37
2018-12-03T22:11:54.132Z,119.53
2018-12-03T22:14:25.888Z,115.43
2018-12-03T22:16:58.394Z,115.20
2018-12-03T22:19:30.225Z,114.20
2018-12-03T22:22:02.220Z,112.97
2018-12-03T22:24:34.275Z,115.20
2018-12-03T22:27:06.520Z,118.83
2018-12-03T22:29:37.687Z,119.67
2018-12-03T22:32:10.002Z,129.60
2018-12-03T22:34:41.704Z,110.07
2018-12-03T22:38:07.334Z,120.20
2018-12-03T22:40:38.211Z,114.63
2018-12-03T22:43:09.597Z,115.63
2018-12-03T22:45:40.572Z,110.73
2018-12-03T22:48:11.631Z,117.87
2018-12-03T22:50:42.382Z,114.30
2018-12-03T22:53:13.533Z,113.43
2018-12-03T22:55:43.891Z,113.20
2018-12-03T22:58:14.723Z,117.17
2018-12-03T23:00:50.068Z,113.07
2018-12-03T23:03:20.756Z,113.77
2018-12-03T23:05:51.165Z,114.53
2018-12-03T23:08:22.864Z,111.97
2018-12-03T23:10:53.569Z,103.67
2018-12-03T23:13:24.429Z,121.40
2018-12-03T23:15:56.297Z,111.40
2018-12-03T23:18:27.361Z,113.17
2018-12-03T23:20:57.917Z,101.63
2018-12-03T23:23:28.818Z,110.80
2018-12-03T23:25:59.517Z,106.50
2018-12-03T23:28:30.226Z,103.77
2018-12-03T23:31:01.138Z,109.23
2018-12-03T23:33:32.050Z,104.17
2018-12-03T23:36:03.064Z,101.77
2018-12-03T23:38:33.882Z,107.83
2018-12-03T23:41:04.882Z,116.00
2018-12-03T23:43:35.605Z,104.20
2018-12-03T23:46:05.885Z,105.40
2018-12-03T23:48:36.761Z,106.50
2018-12-03T23:51:07.304Z,105.13
2018-12-03T23:53:37.928Z,106.60
2018-12-03T23:56:08.781Z,116.30
2018-12-03T23:58:39.635Z,112.17
